createdAt,value
2019-06-08T00:00:23.131Z,1.00
2019-06-08T00:03:13.492Z,1.20
2019-06-08T00:06:05.162Z,1.00
2019-06-08T00:08:55.036Z,1.53
2019-06-08T00:11:45.369Z,1.00
2019-06-08T00:14:34.966Z,0.90
2019-06-08T00:17:37.484Z,1.20
2019-06-08T00:20:19.643Z,1.20
2019-06-08T00:23:09.995Z,0.97
2019-06-08T00:25:59.662Z,0.90
2019-06-08T00:28:50.071Z,1.00
2019-06-08T00:31:40.300Z,1.23
2019-06-08T00:34:30.250Z,1.10
2019-06-08T00:37:20.802Z,0.73
2019-06-08T00:40:11.694Z,1.17
2019-06-08T00:43:01.775Z,1.00
2019-06-08T00:45:52.892Z,0.80
2019-06-08T00:48:46.203Z,0.70
2019-06-08T00:51:36.208Z,0.83
2019-06-08T00:54:29.746Z,1.20
2019-06-08T00:57:19.788Z,0.73
2019-06-08T01:00:12.073Z,0.70
2019-06-08T01:03:02.331Z,0.80
2019-06-08T01:05:51.263Z,0.93
2019-06-08T01:08:41.558Z,0.63
2019-06-08T01:11:31.717Z,0.80
2019-06-08T01:14:21.272Z,0.80
2019-06-08T01:17:11.020Z,0.80
2019-06-08T01:20:01.287Z,0.80
2019-06-08T01:22:51.061Z,0.70
2019-06-08T01:25:40.855Z,0.90
2019-06-08T01:28:31.031Z,0.80
2019-06-08T01:31:22.303Z,0.90
2019-06-08T01:34:16.713Z,0.90
2019-06-08T01:37:06.575Z,1.23
2019-06-08T01:39:56.415Z,0.83
2019-06-08T01:42:46.448Z,0.80
2019-06-08T01:45:36.823Z,0.70
2019-06-08T01:48:28.238Z,1.00
2019-06-08T01:51:18.048Z,0.60
2019-06-08T01:54:08.955Z,1.50
2019-06-08T01:56:59.033Z,0.70
2019-06-08T01:59:48.596Z,0.70
2019-06-08T02:02:38.603Z,0.70
2019-06-08T02:05:30.297Z,0.60
2019-06-08T02:08:20.581Z,0.70
2019-06-08T02:11:10.710Z,0.60
2019-06-08T02:14:01.007Z,0.63
2019-06-08T02:16:51.180Z,0.60
2019-06-08T02:19:41.024Z,1.00
2019-06-08T02:22:31.432Z,0.73
2019-06-08T02:25:29.412Z,0.90
2019-06-08T02:28:19.999Z,0.70
2019-06-08T02:31:09.969Z,0.70
2019-06-08T02:34:00.018Z,0.70
2019-06-08T02:36:49.984Z,0.70
2019-06-08T02:39:39.987Z,0.80
2019-06-08T02:42:31.120Z,0.73
2019-06-08T02:45:22.482Z,0.60
2019-06-08T02:48:12.895Z,0.70
2019-06-08T02:51:03.375Z,0.70
2019-06-08T02:53:53.593Z,0.67
2019-06-08T02:56:46.346Z,0.70
2019-06-08T02:59:40.965Z,0.77
2019-06-08T03:02:33.982Z,0.60
2019-06-08T03:05:25.930Z,0.80
2019-06-08T03:08:15.615Z,0.73
2019-06-08T03:11:07.438Z,0.57
2019-06-08T03:13:59.821Z,0.93
2019-06-08T03:16:49.339Z,0.50
2019-06-08T03:19:40.101Z,0.70
2019-06-08T03:22:32.059Z,0.70
2019-06-08T03:25:22.240Z,0.73
2019-06-08T03:28:12.310Z,0.70
2019-06-08T03:31:02.198Z,0.73
2019-06-08T03:33:55.886Z,0.80
2019-06-08T03:36:54.650Z,0.60
2019-06-08T03:39:36.918Z,0.70
2019-06-08T03:42:26.930Z,0.77
2019-06-08T03:45:17.007Z,0.60
2019-06-08T03:48:07.789Z,0.70
2019-06-08T03:50:57.637Z,1.03
2019-06-08T03:53:47.601Z,0.73
2019-06-08T03:56:40.064Z,0.60
2019-06-08T03:59:30.102Z,0.70
2019-06-08T04:02:20.436Z,0.63
2019-06-08T04:05:10.481Z,0.90
2019-06-08T04:08:00.476Z,0.80
2019-06-08T04:10:50.511Z,1.00
2019-06-08T04:13:42.050Z,0.70
2019-06-08T04:16:32.415Z,0.70
2019-06-08T04:19:22.419Z,0.70
2019-06-08T04:22:12.665Z,1.17
2019-06-08T04:25:02.753Z,0.80
2019-06-08T04:27:53.162Z,0.70
2019-06-08T04:30:44.810Z,0.90
2019-06-08T04:33:35.010Z,0.83
2019-06-08T04:36:24.852Z,1.00
2019-06-08T04:39:14.677Z,0.70
2019-06-08T04:42:04.886Z,0.70
2019-06-08T04:44:54.955Z,1.13
2019-06-08T04:47:46.103Z,0.70
2019-06-08T04:50:36.095Z,0.70
2019-06-08T04:53:26.285Z,0.90
2019-06-08T04:56:16.245Z,0.60
2019-06-08T04:59:07.670Z,0.70
2019-06-08T05:01:57.345Z,0.60
2019-06-08T05:04:47.277Z,0.60
2019-06-08T05:07:37.001Z,0.90
2019-06-08T05:10:26.881Z,0.80
2019-06-08T05:13:17.218Z,0.67
2019-06-08T05:16:08.625Z,0.70
2019-06-08T05:18:58.987Z,1.03
2019-06-08T05:21:49.925Z,0.70
2019-06-08T05:24:39.668Z,0.70
2019-06-08T05:27:30.795Z,0.60
2019-06-08T05:30:21.501Z,0.80
2019-06-08T05:33:11.917Z,0.90
2019-06-08T05:36:01.849Z,1.30
2019-06-08T05:38:51.889Z,0.60
2019-06-08T05:41:41.657Z,0.83
2019-06-08T05:44:31.478Z,0.90
2019-06-08T05:47:21.616Z,0.70
2019-06-08T05:50:11.877Z,0.73
2019-06-08T05:53:02.156Z,1.00
2019-06-08T05:55:52.263Z,0.90
2019-06-08T05:58:42.282Z,0.70
2019-06-08T06:01:32.244Z,0.80
2019-06-08T06:04:22.319Z,0.80
2019-06-08T06:07:12.183Z,0.80
2019-06-08T06:10:02.333Z,1.03
2019-06-08T06:12:51.949Z,0.60
2019-06-08T06:15:42.908Z,0.63
2019-06-08T06:18:32.980Z,1.00
2019-06-08T06:21:23.274Z,0.80
2019-06-08T06:24:13.010Z,1.00
2019-06-08T06:27:03.064Z,1.13
2019-06-08T06:29:52.983Z,1.10
2019-06-08T06:32:43.862Z,0.80
2019-06-08T06:35:33.903Z,0.80
2019-06-08T06:38:23.888Z,1.80
2019-06-08T06:41:13.908Z,0.60
2019-06-08T06:44:04.808Z,0.60
2019-06-08T06:46:55.309Z,0.60
2019-06-08T06:49:44.795Z,0.70
2019-06-08T06:52:34.639Z,0.80
2019-06-08T06:55:25.506Z,1.23
2019-06-08T06:58:16.820Z,1.10
2019-06-08T07:01:07.257Z,0.83
2019-06-08T07:03:57.440Z,0.70
2019-06-08T07:06:48.123Z,0.83
2019-06-08T07:09:38.372Z,0.80
2019-06-08T07:12:28.520Z,1.13
2019-06-08T07:15:27.745Z,0.80
2019-06-08T07:18:18.070Z,1.40
2019-06-08T07:21:07.602Z,0.80
2019-06-08T07:23:57.190Z,0.70
2019-06-08T07:26:46.701Z,1.67
2019-06-08T07:29:37.018Z,0.80
2019-06-08T07:32:28.198Z,0.93
2019-06-08T07:35:18.126Z,1.00
2019-06-08T07:38:07.456Z,1.30
2019-06-08T07:40:59.931Z,0.77
2019-06-08T07:43:50.683Z,1.30
2019-06-08T07:46:40.851Z,0.90
2019-06-08T07:49:30.711Z,1.23
2019-06-08T07:52:20.786Z,2.07
2019-06-08T07:55:11.105Z,1.10
2019-06-08T07:58:01.740Z,0.90
2019-06-08T08:00:52.985Z,0.90
2019-06-08T08:03:43.140Z,0.80
2019-06-08T08:06:33.359Z,1.53
2019-06-08T08:09:23.183Z,1.03
2019-06-08T08:12:13.061Z,1.80
2019-06-08T08:15:03.027Z,1.47
2019-06-08T08:17:53.866Z,0.90
2019-06-08T08:20:43.850Z,0.67
2019-06-08T08:23:34.254Z,0.90
2019-06-08T08:26:27.135Z,1.10
2019-06-08T08:29:17.651Z,1.00
2019-06-08T08:32:09.961Z,2.33
2019-06-08T08:35:02.690Z,1.00
2019-06-08T08:37:56.309Z,0.90
2019-06-08T08:40:43.914Z,1.00
2019-06-08T08:43:37.578Z,1.43
2019-06-08T08:46:28.560Z,1.53
2019-06-08T08:49:20.053Z,1.10
2019-06-08T08:52:11.596Z,1.20
2019-06-08T08:55:02.307Z,1.20
2019-06-08T08:57:54.808Z,1.20
2019-06-08T09:00:45.464Z,1.20
2019-06-08T09:03:35.554Z,1.40
2019-06-08T09:06:27.822Z,1.00
2019-06-08T09:09:18.812Z,1.50
2019-06-08T09:12:10.288Z,1.10
2019-06-08T09:15:02.021Z,1.43
2019-06-08T09:17:53.819Z,3.60
2019-06-08T09:20:43.767Z,1.03
2019-06-08T09:23:33.656Z,1.20
2019-06-08T09:26:23.898Z,1.10
2019-06-08T09:29:14.127Z,1.30
2019-06-08T09:32:04.689Z,0.93
2019-06-08T09:34:57.165Z,1.20
2019-06-08T09:37:48.622Z,1.10
2019-06-08T09:40:38.702Z,0.97
2019-06-08T09:43:29.258Z,0.80
2019-06-08T09:46:19.574Z,1.10
2019-06-08T09:49:11.753Z,1.30
2019-06-08T09:52:03.363Z,1.57
2019-06-08T09:54:54.660Z,3.33
2019-06-08T09:57:45.690Z,1.10
2019-06-08T10:00:39.234Z,1.50
2019-06-08T10:03:31.976Z,1.20
2019-06-08T10:06:23.215Z,1.20
2019-06-08T10:09:18.851Z,1.17
2019-06-08T10:12:28.136Z,1.37
2019-06-08T10:15:18.562Z,1.77
2019-06-08T10:18:12.873Z,1.73
2019-06-08T10:21:04.951Z,1.37
2019-06-08T10:23:54.892Z,1.20
2019-06-08T10:26:44.759Z,1.20
2019-06-08T10:29:38.184Z,1.40
2019-06-08T10:32:28.204Z,1.20
2019-06-08T10:35:20.968Z,1.53
2019-06-08T10:38:11.985Z,1.67
2019-06-08T10:41:12.987Z,1.67
2019-06-08T10:43:54.934Z,0.80
2019-06-08T10:46:45.307Z,0.90
2019-06-08T10:49:38.448Z,1.20
2019-06-08T10:52:28.728Z,1.03
2019-06-08T10:55:19.140Z,1.43
2019-06-08T10:58:11.303Z,1.00
2019-06-08T11:01:04.178Z,1.33
2019-06-08T11:03:52.756Z,0.90
2019-06-08T11:06:42.916Z,1.10
2019-06-08T11:09:32.563Z,1.00
2019-06-08T11:12:22.505Z,1.23
2019-06-08T11:15:12.219Z,1.10
2019-06-08T11:18:05.862Z,0.93
2019-06-08T11:20:53.946Z,0.97
2019-06-08T11:23:44.286Z,1.83
2019-06-08T11:26:34.208Z,0.97
2019-06-08T11:29:23.945Z,1.30
2019-06-08T11:32:14.790Z,1.13
2019-06-08T11:35:06.505Z,1.40
2019-06-08T11:37:58.493Z,1.50
2019-06-08T11:40:48.647Z,1.20
2019-06-08T11:43:38.965Z,0.70
2019-06-08T11:46:28.925Z,1.13
2019-06-08T11:49:19.286Z,1.10
2019-06-08T11:52:11.181Z,1.10
2019-06-08T11:55:02.554Z,0.87
2019-06-08T11:57:54.389Z,1.40
2019-06-08T12:01:00.691Z,0.90
2019-06-08T12:03:49.824Z,1.10
2019-06-08T12:06:39.696Z,1.07
2019-06-08T12:09:29.549Z,0.90
2019-06-08T12:12:21.310Z,1.10
2019-06-08T12:15:13.274Z,1.20
2019-06-08T12:18:03.433Z,1.10
2019-06-08T12:20:53.944Z,0.80
2019-06-08T12:23:44.147Z,1.03
2019-06-08T12:26:35.624Z,1.00
2019-06-08T12:29:28.239Z,0.80
2019-06-08T12:32:18.427Z,1.00
2019-06-08T12:35:10.930Z,1.13
2019-06-08T12:38:00.787Z,1.00
2019-06-08T12:40:50.481Z,1.20
2019-06-08T12:43:40.712Z,0.93
2019-06-08T12:46:30.302Z,0.90
2019-06-08T12:49:20.538Z,1.27
2019-06-08T12:52:12.544Z,0.90
2019-06-08T12:55:06.788Z,0.87
2019-06-08T12:57:53.768Z,0.97
2019-06-08T13:00:44.299Z,0.80
2019-06-08T13:03:34.379Z,1.30
2019-06-08T13:06:24.562Z,1.73
2019-06-08T13:09:15.039Z,0.90
2019-06-08T13:12:07.918Z,1.37
2019-06-08T13:14:59.271Z,1.03
2019-06-08T13:17:50.615Z,1.03
2019-06-08T13:20:40.661Z,1.10
2019-06-08T13:23:30.760Z,0.90
2019-06-08T13:26:27.483Z,1.20
2019-06-08T13:29:13.776Z,2.03
2019-06-08T13:32:03.530Z,1.17
2019-06-08T13:34:52.827Z,0.97
2019-06-08T13:37:42.672Z,1.37
2019-06-08T13:40:32.461Z,0.90
2019-06-08T13:43:22.793Z,1.53
2019-06-08T13:46:13.712Z,1.10
2019-06-08T13:49:03.888Z,1.00
2019-06-08T13:51:54.171Z,1.00
2019-06-08T13:54:44.011Z,0.80
2019-06-08T13:57:34.037Z,1.00
2019-06-08T14:00:38.121Z,0.93
2019-06-08T14:03:27.893Z,1.10
2019-06-08T14:06:19.025Z,0.70
2019-06-08T14:09:09.647Z,1.20
2019-06-08T14:11:59.477Z,1.00
2019-06-08T14:14:49.592Z,1.00
2019-06-08T14:17:39.611Z,3.00
2019-06-08T14:20:34.145Z,1.60
2019-06-08T14:23:22.626Z,1.00
2019-06-08T14:26:12.442Z,0.90
2019-06-08T14:29:02.080Z,0.83
2019-06-08T14:31:52.572Z,0.87
2019-06-08T14:34:42.392Z,1.33
2019-06-08T14:37:32.342Z,1.10
2019-06-08T14:40:23.452Z,1.03
2019-06-08T14:43:14.031Z,1.20
2019-06-08T14:46:04.334Z,2.80
2019-06-08T14:48:54.218Z,1.40
2019-06-08T14:51:50.264Z,0.93
2019-06-08T14:54:40.261Z,1.00
2019-06-08T14:57:30.890Z,1.03
2019-06-08T15:00:24.461Z,1.00
2019-06-08T15:03:17.842Z,1.17
2019-06-08T15:06:07.952Z,1.00
2019-06-08T15:08:58.182Z,0.90
2019-06-08T15:11:48.131Z,0.90
2019-06-08T15:14:38.574Z,1.20
2019-06-08T15:17:30.836Z,1.30
2019-06-08T15:20:20.164Z,1.13
2019-06-08T15:23:10.348Z,1.40
2019-06-08T15:26:00.440Z,1.10
2019-06-08T15:28:49.984Z,1.00
2019-06-08T15:31:41.074Z,0.77
2019-06-08T15:34:32.961Z,1.00
2019-06-08T15:37:23.225Z,1.40
2019-06-08T15:40:14.836Z,2.10
2019-06-08T15:43:05.481Z,1.27
2019-06-08T15:45:55.194Z,0.93
2019-06-08T15:48:45.228Z,1.00
2019-06-08T15:51:40.162Z,1.30
2019-06-08T15:54:29.021Z,1.47
2019-06-08T15:57:17.976Z,0.90
2019-06-08T16:00:10.288Z,1.00
2019-06-08T16:03:00.093Z,1.10
2019-06-08T16:05:49.908Z,1.00
2019-06-08T16:08:39.826Z,0.80
2019-06-08T16:11:30.299Z,1.50
2019-06-08T16:14:20.084Z,1.13
2019-06-08T16:17:09.793Z,1.10
2019-06-08T16:19:59.859Z,1.10
2019-06-08T16:22:49.596Z,1.10
2019-06-08T16:25:40.049Z,1.10
2019-06-08T16:28:29.913Z,1.30
2019-06-08T16:31:20.093Z,1.27
2019-06-08T16:34:09.659Z,1.10
2019-06-08T16:36:59.631Z,1.13
2019-06-08T16:39:49.353Z,1.40
2019-06-08T16:42:38.774Z,1.00
2019-06-08T16:45:28.967Z,1.30
2019-06-08T16:48:19.143Z,1.30
2019-06-08T16:51:08.972Z,1.13
2019-06-08T16:53:58.469Z,2.10
2019-06-08T16:56:48.497Z,1.30
2019-06-08T16:59:38.786Z,1.83
2019-06-08T17:02:28.667Z,1.53
2019-06-08T17:05:17.941Z,1.20
2019-06-08T17:08:08.548Z,1.27
2019-06-08T17:10:58.319Z,1.47
2019-06-08T17:13:48.009Z,1.03
2019-06-08T17:16:38.841Z,1.00
2019-06-08T17:19:29.972Z,1.00
2019-06-08T17:22:20.920Z,1.47
2019-06-08T17:25:11.416Z,1.20
2019-06-08T17:28:01.265Z,1.40
2019-06-08T17:30:51.291Z,1.10
2019-06-08T17:33:41.562Z,1.30
2019-06-08T17:38:56.316Z,1.00
2019-06-08T17:41:46.303Z,1.20
2019-06-08T17:44:36.462Z,1.00
2019-06-08T17:47:26.589Z,1.17
2019-06-08T17:50:17.578Z,1.30
2019-06-08T17:53:07.252Z,1.43
2019-06-08T17:55:58.972Z,1.43
2019-06-08T17:58:49.201Z,1.00
2019-06-08T18:01:39.735Z,1.33
2019-06-08T18:04:29.319Z,1.23
2019-06-08T18:07:18.857Z,1.40
2019-06-08T18:10:08.526Z,1.20
2019-06-08T18:12:58.855Z,0.90
2019-06-08T18:15:48.489Z,1.17
2019-06-08T18:18:41.813Z,1.40
2019-06-08T18:21:30.766Z,1.00
2019-06-08T18:24:20.613Z,1.00
2019-06-08T18:27:10.627Z,1.03
2019-06-08T18:30:08.015Z,0.90
2019-06-08T18:32:53.997Z,0.90
2019-06-08T18:35:44.490Z,1.00
2019-06-08T18:38:34.906Z,1.10
2019-06-08T18:41:27.000Z,1.50
2019-06-08T18:44:17.532Z,1.20
2019-06-08T18:47:07.877Z,1.00
2019-06-08T18:49:58.075Z,1.30
2019-06-08T18:52:49.709Z,1.20
2019-06-08T18:55:41.574Z,1.40
2019-06-08T18:58:31.604Z,1.17
2019-06-08T19:01:22.915Z,1.07
2019-06-08T19:04:12.911Z,1.10
2019-06-08T19:07:03.929Z,1.20
2019-06-08T19:09:54.798Z,1.13
2019-06-08T19:12:46.448Z,1.50
2019-06-08T19:15:41.885Z,1.47
2019-06-08T19:18:29.415Z,1.30
2019-06-08T19:21:19.305Z,1.70
2019-06-08T19:24:09.852Z,2.33
2019-06-08T19:26:59.964Z,2.13
2019-06-08T19:29:51.724Z,4.23
2019-06-08T19:32:42.974Z,2.70
2019-06-08T19:35:34.850Z,2.10
2019-06-08T19:38:27.852Z,1.87
2019-06-08T19:41:17.877Z,1.80
2019-06-08T19:44:07.887Z,1.53
2019-06-08T19:46:58.332Z,1.80
2019-06-08T19:49:54.476Z,2.10
2019-06-08T19:52:42.108Z,1.50
2019-06-08T19:55:31.449Z,2.40
2019-06-08T19:58:21.350Z,4.03
2019-06-08T20:01:11.117Z,3.60
2019-06-08T20:04:01.616Z,1.93
2019-06-08T20:06:51.381Z,2.30
2019-06-08T20:09:41.074Z,1.60
2019-06-08T20:12:30.388Z,1.80
2019-06-08T20:15:20.381Z,1.37
2019-06-08T20:18:10.267Z,2.20
2019-06-08T20:21:00.056Z,2.50
2019-06-08T20:23:50.964Z,6.00
2019-06-08T20:26:42.230Z,4.73
2019-06-08T20:29:31.606Z,5.00
2019-06-08T20:32:21.449Z,4.10
2019-06-08T20:35:11.336Z,3.50
2019-06-08T20:38:01.106Z,3.40
2019-06-08T20:40:52.340Z,3.80
2019-06-08T20:43:42.811Z,2.90
2019-06-08T20:46:32.760Z,2.73
2019-06-08T20:49:22.792Z,10.30
2019-06-08T20:52:13.010Z,15.70
2019-06-08T20:55:03.329Z,13.77
2019-06-08T20:57:53.812Z,5.10
2019-06-08T21:00:44.064Z,4.60
2019-06-08T21:03:34.093Z,3.37
2019-06-08T21:06:24.243Z,2.63
2019-06-08T21:09:14.580Z,2.80
2019-06-08T21:12:04.413Z,2.50
2019-06-08T21:14:55.512Z,3.83
2019-06-08T21:17:49.076Z,4.60
2019-06-08T21:20:37.850Z,5.10
2019-06-08T21:23:31.889Z,5.57
2019-06-08T21:26:20.161Z,5.20
2019-06-08T21:29:09.729Z,5.90
2019-06-08T21:32:02.384Z,6.77
2019-06-08T21:34:52.682Z,5.47
2019-06-08T21:37:42.683Z,5.97
2019-06-08T21:40:32.363Z,5.90
2019-06-08T21:43:22.218Z,5.90
2019-06-08T21:46:11.949Z,5.20
2019-06-08T21:49:01.798Z,5.30
2019-06-08T21:51:53.003Z,5.10
2019-06-08T21:54:43.309Z,4.60
2019-06-08T21:57:33.207Z,4.63
2019-06-08T22:00:38.854Z,5.40
2019-06-08T22:03:17.527Z,4.70
2019-06-08T22:06:08.011Z,5.10
2019-06-08T22:08:59.478Z,5.27
2019-06-08T22:11:50.981Z,3.73
2019-06-08T22:14:40.400Z,4.77
2019-06-08T22:17:30.214Z,4.03
2019-06-08T22:20:20.238Z,4.20
2019-06-08T22:23:09.904Z,4.43
2019-06-08T22:26:01.208Z,5.00
2019-06-08T22:28:53.489Z,5.00
2019-06-08T22:31:43.547Z,3.97
2019-06-08T22:34:33.566Z,4.60
2019-06-08T22:37:23.858Z,4.37
2019-06-08T22:40:14.325Z,4.80
2019-06-08T22:43:04.334Z,3.97
2019-06-08T22:45:54.573Z,4.30
2019-06-08T22:48:43.708Z,3.63
2019-06-08T22:51:33.600Z,3.70
2019-06-08T22:54:23.413Z,3.60
2019-06-08T22:57:13.362Z,3.20
2019-06-08T23:00:14.415Z,3.30
2019-06-08T23:03:00.363Z,3.50
2019-06-08T23:05:48.782Z,3.40
2019-06-08T23:08:38.316Z,3.80
2019-06-08T23:11:28.412Z,3.30
2019-06-08T23:14:18.996Z,3.80
2019-06-08T23:17:08.761Z,4.00
2019-06-08T23:19:59.313Z,3.80
2019-06-08T23:22:50.099Z,3.73
2019-06-08T23:25:40.050Z,3.00
2019-06-08T23:28:30.195Z,3.90
2019-06-08T23:31:25.293Z,3.70
2019-06-08T23:34:12.372Z,3.87
2019-06-08T23:37:06.010Z,3.53
2019-06-08T23:39:54.578Z,2.93
2019-06-08T23:42:44.594Z,2.77
2019-06-08T23:45:34.068Z,2.83
2019-06-08T23:48:23.690Z,3.80
2019-06-08T23:51:13.535Z,3.80
2019-06-08T23:54:04.388Z,2.97
2019-06-08T23:56:55.596Z,3.07
2019-06-08T23:59:47.695Z,2.80
